createdAt,value
2018-09-30T00:01:35.598Z,4.93
2018-09-30T00:04:04.748Z,3.83
2018-09-30T00:06:33.947Z,3.40
2018-09-30T00:09:03.011Z,6.07
2018-09-30T00:11:32.006Z,3.90
2018-09-30T00:14:01.231Z,3.50
2018-09-30T00:16:30.222Z,3.73
2018-09-30T00:18:59.270Z,3.07
2018-09-30T00:21:28.281Z,3.50
2018-09-30T00:24:02.702Z,4.03
2018-09-30T00:26:37.059Z,3.57
2018-09-30T00:29:06.127Z,3.57
2018-09-30T00:31:35.265Z,3.60
2018-09-30T00:34:09.457Z,3.87
2018-09-30T00:36:38.686Z,8.53
2018-09-30T00:39:07.867Z,4.03
2018-09-30T00:41:37.069Z,4.13
2018-09-30T00:44:06.342Z,3.40
2018-09-30T00:46:35.523Z,3.87
2018-09-30T00:49:04.792Z,3.27
2018-09-30T00:51:33.778Z,3.67
2018-09-30T00:54:03.031Z,3.40
2018-09-30T00:56:32.109Z,3.30
2018-09-30T00:59:01.121Z,3.30
2018-09-30T01:01:30.155Z,4.03
2018-09-30T01:03:59.456Z,4.30
2018-09-30T01:06:28.695Z,3.43
2018-09-30T01:08:57.690Z,2.90
2018-09-30T01:11:26.988Z,3.43
2018-09-30T01:13:56.143Z,3.67
2018-09-30T01:16:25.166Z,3.80
2018-09-30T01:18:54.222Z,3.20
2018-09-30T01:21:23.596Z,3.30
2018-09-30T01:23:52.635Z,3.60
2018-09-30T01:26:21.641Z,3.57
2018-09-30T01:28:50.657Z,11.13
2018-09-30T01:31:19.775Z,9.07
2018-09-30T01:33:48.837Z,4.20
2018-09-30T01:36:17.834Z,3.10
2018-09-30T01:38:47.027Z,3.20
2018-09-30T01:41:16.058Z,2.90
2018-09-30T01:43:45.077Z,2.93
2018-09-30T01:46:14.063Z,4.10
2018-09-30T01:48:43.242Z,3.60
2018-09-30T01:51:12.279Z,2.70
2018-09-30T01:53:41.280Z,3.20
2018-09-30T01:56:10.261Z,3.13
2018-09-30T01:58:39.289Z,3.03
2018-09-30T02:01:08.293Z,3.10
2018-09-30T02:03:37.352Z,2.87
2018-09-30T02:06:06.032Z,2.87
2018-09-30T02:08:35.150Z,3.37
2018-09-30T02:11:04.188Z,3.30
2018-09-30T02:13:33.164Z,3.03
2018-09-30T02:16:02.246Z,3.10
2018-09-30T02:18:31.255Z,3.30
2018-09-30T02:21:00.250Z,3.07
2018-09-30T02:23:29.223Z,3.27
2018-09-30T02:25:58.222Z,4.27
2018-09-30T02:28:27.622Z,3.20
2018-09-30T02:30:56.604Z,3.30
2018-09-30T02:33:25.583Z,3.07
2018-09-30T02:35:54.561Z,3.50
2018-09-30T02:38:23.546Z,3.17
2018-09-30T02:40:52.522Z,3.47
2018-09-30T02:43:21.509Z,3.30
2018-09-30T02:45:50.497Z,3.80
2018-09-30T02:48:19.686Z,3.30
2018-09-30T02:50:48.882Z,3.60
2018-09-30T02:53:17.858Z,3.57
2018-09-30T02:55:46.836Z,3.60
2018-09-30T02:58:15.802Z,3.50
2018-09-30T03:00:44.777Z,4.03
2018-09-30T03:03:13.902Z,3.07
2018-09-30T03:05:43.151Z,3.93
2018-09-30T03:08:17.460Z,3.50
2018-09-30T03:10:46.635Z,3.33
2018-09-30T03:13:15.598Z,3.53
2018-09-30T03:15:44.776Z,3.23
2018-09-30T03:18:13.777Z,3.50
2018-09-30T03:20:43.075Z,3.17
2018-09-30T03:23:12.041Z,3.13
2018-09-30T03:25:41.026Z,3.70
2018-09-30T03:28:10.011Z,3.33
2018-09-30T03:30:39.103Z,3.40
2018-09-30T03:33:08.073Z,3.50
2018-09-30T03:35:37.037Z,3.80
2018-09-30T03:38:06.056Z,3.53
2018-09-30T03:40:35.029Z,3.90
2018-09-30T03:43:04.047Z,3.30
2018-09-30T03:45:33.047Z,3.23
2018-09-30T03:48:02.246Z,3.30
2018-09-30T03:50:31.247Z,3.60
2018-09-30T03:53:00.227Z,3.30
2018-09-30T03:55:29.567Z,3.27
2018-09-30T03:57:58.519Z,3.53
2018-09-30T04:00:27.722Z,3.20
2018-09-30T04:02:56.748Z,3.20
2018-09-30T04:05:32.482Z,3.53
2018-09-30T04:08:01.518Z,3.47
2018-09-30T04:10:30.515Z,2.97
2018-09-30T04:12:59.550Z,3.13
2018-09-30T04:15:28.978Z,3.70
2018-09-30T04:17:57.997Z,2.90
2018-09-30T04:20:26.978Z,3.23
2018-09-30T04:22:55.946Z,2.80
2018-09-30T04:25:24.928Z,3.10
2018-09-30T04:27:53.921Z,3.67
2018-09-30T04:30:22.931Z,3.13
2018-09-30T04:32:51.922Z,3.87
2018-09-30T04:35:21.193Z,3.27
2018-09-30T04:37:50.165Z,3.40
2018-09-30T04:40:19.129Z,3.23
2018-09-30T04:42:48.316Z,3.20
2018-09-30T04:45:17.605Z,3.30
2018-09-30T04:47:46.600Z,3.17
2018-09-30T04:50:15.584Z,3.67
2018-09-30T04:52:44.573Z,3.80
2018-09-30T04:55:13.531Z,3.57
2018-09-30T04:57:42.726Z,3.77
2018-09-30T05:00:11.759Z,3.30
2018-09-30T05:02:40.861Z,3.90
2018-09-30T05:05:09.892Z,3.43
2018-09-30T05:07:38.937Z,4.37
2018-09-30T05:10:08.123Z,3.63
2018-09-30T05:12:37.088Z,3.47
2018-09-30T05:15:06.042Z,3.30
2018-09-30T05:17:35.005Z,3.23
2018-09-30T05:20:04.055Z,3.87
2018-09-30T05:22:33.166Z,3.27
2018-09-30T05:25:02.601Z,3.77
2018-09-30T05:27:32.013Z,3.33
2018-09-30T05:30:01.042Z,3.73
2018-09-30T05:32:30.149Z,4.93
2018-09-30T05:34:59.308Z,3.50
2018-09-30T05:37:28.370Z,3.40
2018-09-30T05:39:57.412Z,3.23
2018-09-30T05:42:26.661Z,3.90
2018-09-30T05:44:55.933Z,3.83
2018-09-30T05:47:25.383Z,3.37
2018-09-30T05:49:54.383Z,3.70
2018-09-30T05:52:23.639Z,3.90
2018-09-30T05:54:52.947Z,4.70
2018-09-30T05:57:22.088Z,3.73
2018-09-30T05:59:51.085Z,3.27
2018-09-30T06:02:20.064Z,3.50
2018-09-30T06:04:49.150Z,3.50
2018-09-30T06:07:18.146Z,3.90
2018-09-30T06:09:47.156Z,3.50
2018-09-30T06:12:16.447Z,5.80
2018-09-30T06:14:45.635Z,3.50
2018-09-30T06:17:15.030Z,3.70
2018-09-30T06:19:44.066Z,4.10
2018-09-30T06:22:13.168Z,3.80
2018-09-30T06:24:42.298Z,3.73
2018-09-30T06:27:11.340Z,4.30
2018-09-30T06:29:40.664Z,3.93
2018-09-30T06:32:09.719Z,4.00
2018-09-30T06:34:38.611Z,3.83
2018-09-30T06:37:07.746Z,3.77
2018-09-30T06:39:36.806Z,4.23
2018-09-30T06:42:06.321Z,4.40
2018-09-30T06:44:35.500Z,3.50
2018-09-30T06:47:04.754Z,4.23
2018-09-30T06:49:33.868Z,4.20
2018-09-30T06:52:03.016Z,4.40
2018-09-30T06:54:32.308Z,4.23
2018-09-30T06:57:01.297Z,3.90
2018-09-30T06:59:30.336Z,4.50
2018-09-30T07:01:59.372Z,3.97
2018-09-30T07:04:28.703Z,4.47
2018-09-30T07:06:57.713Z,4.23
2018-09-30T07:09:26.742Z,3.53
2018-09-30T07:11:55.717Z,4.10
2018-09-30T07:14:24.796Z,4.17
2018-09-30T07:16:53.871Z,4.53
2018-09-30T07:19:22.776Z,4.10
2018-09-30T07:21:51.763Z,4.07
2018-09-30T07:24:21.015Z,4.17
2018-09-30T07:26:50.262Z,4.47
2018-09-30T07:29:19.275Z,3.80
2018-09-30T07:31:48.258Z,3.97
2018-09-30T07:34:17.477Z,4.10
2018-09-30T07:36:46.525Z,3.93
2018-09-30T07:39:15.560Z,4.90
2018-09-30T07:41:44.555Z,4.30
2018-09-30T07:44:13.587Z,4.17
2018-09-30T07:46:42.649Z,4.30
2018-09-30T07:49:11.975Z,4.33
2018-09-30T07:51:41.390Z,4.00
2018-09-30T07:54:10.678Z,6.33
2018-09-30T07:56:39.874Z,4.43
2018-09-30T07:59:09.188Z,5.43
2018-09-30T08:01:38.235Z,4.27
2018-09-30T08:04:07.757Z,4.20
2018-09-30T08:06:36.793Z,4.27
2018-09-30T08:09:07.943Z,4.17
2018-09-30T08:11:37.163Z,3.80
2018-09-30T08:14:06.282Z,4.27
2018-09-30T08:16:35.333Z,4.10
2018-09-30T08:19:04.328Z,3.60
2018-09-30T08:21:33.341Z,4.00
2018-09-30T08:24:02.534Z,3.90
2018-09-30T08:26:31.603Z,3.60
2018-09-30T08:29:00.599Z,3.77
2018-09-30T08:31:29.931Z,4.03
2018-09-30T08:33:59.576Z,3.90
2018-09-30T08:36:28.929Z,4.10
2018-09-30T08:38:57.981Z,3.93
2018-09-30T08:41:27.213Z,3.60
2018-09-30T08:43:56.366Z,3.70
2018-09-30T08:46:25.522Z,3.80
2018-09-30T08:48:54.513Z,3.30
2018-09-30T08:51:23.638Z,3.73
2018-09-30T08:53:52.753Z,3.70
2018-09-30T08:56:22.011Z,3.10
2018-09-30T08:58:51.349Z,3.23
2018-09-30T09:01:20.630Z,2.93
2018-09-30T09:03:49.732Z,3.40
2018-09-30T09:06:18.770Z,3.37
2018-09-30T09:08:47.967Z,3.33
2018-09-30T09:11:17.294Z,2.83
2018-09-30T09:13:46.296Z,2.77
2018-09-30T09:16:15.447Z,2.87
2018-09-30T09:18:44.654Z,3.43
2018-09-30T09:21:13.819Z,4.87
2018-09-30T09:23:43.107Z,2.83
2018-09-30T09:26:12.098Z,3.23
2018-09-30T09:28:41.093Z,2.97
2018-09-30T09:31:10.230Z,2.93
2018-09-30T09:33:39.525Z,2.40
2018-09-30T09:36:08.545Z,3.03
2018-09-30T09:38:37.548Z,2.83
2018-09-30T09:41:06.874Z,2.73
2018-09-30T09:43:35.900Z,3.20
2018-09-30T09:46:04.899Z,2.60
2018-09-30T09:48:34.176Z,2.60
2018-09-30T09:51:03.428Z,3.00
2018-09-30T09:53:32.570Z,3.60
2018-09-30T09:56:02.160Z,2.30
2018-09-30T09:58:31.383Z,2.60
2018-09-30T10:01:05.030Z,2.47
2018-09-30T10:03:34.083Z,2.53
2018-09-30T10:06:03.229Z,2.97
2018-09-30T10:08:32.328Z,2.80
2018-09-30T10:11:01.554Z,2.57
2018-09-30T10:13:30.951Z,2.90
2018-09-30T10:15:59.925Z,2.63
2018-09-30T10:18:28.947Z,2.40
2018-09-30T10:20:58.149Z,2.67
2018-09-30T10:23:27.242Z,2.77
2018-09-30T10:25:56.598Z,2.63
2018-09-30T10:28:26.326Z,2.47
2018-09-30T10:30:55.381Z,2.57
2018-09-30T10:33:24.367Z,2.97
2018-09-30T10:35:53.397Z,2.60
2018-09-30T10:38:22.439Z,2.47
2018-09-30T10:40:51.481Z,2.47
2018-09-30T10:43:20.813Z,2.30
2018-09-30T10:45:50.789Z,2.60
2018-09-30T10:48:19.792Z,2.40
2018-09-30T10:50:49.199Z,2.10
2018-09-30T10:53:18.320Z,2.33
2018-09-30T10:55:47.354Z,4.17
2018-09-30T10:58:16.542Z,2.30
2018-09-30T11:00:45.617Z,3.50
2018-09-30T11:03:14.800Z,2.93
2018-09-30T11:05:43.830Z,2.90
2018-09-30T11:08:12.817Z,3.03
2018-09-30T11:10:41.819Z,2.67
2018-09-30T11:13:10.798Z,2.70
2018-09-30T11:15:39.814Z,2.30
2018-09-30T11:18:08.822Z,2.33
2018-09-30T11:20:37.857Z,2.00
2018-09-30T11:23:07.344Z,2.07
2018-09-30T11:25:36.363Z,1.90
2018-09-30T11:28:05.395Z,2.07
2018-09-30T11:30:34.722Z,1.80
2018-09-30T11:33:03.794Z,2.47
2018-09-30T11:35:33.056Z,2.10
2018-09-30T11:38:02.051Z,2.60
2018-09-30T11:40:31.066Z,2.17
2018-09-30T11:43:00.577Z,2.80
2018-09-30T11:45:29.584Z,2.93
2018-09-30T11:47:59.355Z,2.80
2018-09-30T11:50:29.049Z,2.40
2018-09-30T11:52:58.795Z,2.10
2018-09-30T11:55:28.509Z,2.27
2018-09-30T11:57:58.317Z,2.23
2018-09-30T12:00:28.610Z,2.43
2018-09-30T12:02:58.136Z,2.10
2018-09-30T12:05:27.650Z,1.67
2018-09-30T12:07:57.865Z,1.70
2018-09-30T12:10:27.694Z,2.27
2018-09-30T12:12:57.135Z,2.00
2018-09-30T12:15:26.234Z,1.70
2018-09-30T12:17:55.378Z,1.43
2018-09-30T12:20:24.380Z,2.00
2018-09-30T12:22:55.031Z,2.50
2018-09-30T12:25:24.296Z,2.00
2018-09-30T12:27:53.482Z,1.90
2018-09-30T12:30:25.442Z,1.80
2018-09-30T12:32:54.490Z,1.80
2018-09-30T12:35:23.573Z,1.63
2018-09-30T12:37:52.887Z,1.97
2018-09-30T12:40:21.865Z,1.93
2018-09-30T12:42:50.855Z,2.20
2018-09-30T12:45:20.175Z,2.37
2018-09-30T12:47:49.747Z,2.40
2018-09-30T12:50:19.545Z,2.50
2018-09-30T12:52:49.002Z,2.40
2018-09-30T12:55:18.360Z,2.10
2018-09-30T12:57:47.688Z,2.40
2018-09-30T13:00:17.670Z,2.00
2018-09-30T13:02:47.138Z,2.20
2018-09-30T13:05:16.440Z,2.63
2018-09-30T13:07:45.478Z,1.93
2018-09-30T13:10:14.539Z,2.37
2018-09-30T13:12:43.509Z,2.60
2018-09-30T13:15:12.716Z,2.20
2018-09-30T13:17:41.829Z,2.10
2018-09-30T13:20:10.823Z,1.90
2018-09-30T13:22:39.795Z,1.70
2018-09-30T13:25:08.752Z,2.23
2018-09-30T13:27:37.731Z,2.00
2018-09-30T13:30:06.972Z,1.97
2018-09-30T13:32:35.965Z,1.93
2018-09-30T13:35:05.291Z,2.20
2018-09-30T13:37:34.368Z,1.87
2018-09-30T13:40:03.411Z,2.20
2018-09-30T13:42:32.327Z,6.50
2018-09-30T13:45:01.484Z,2.90
2018-09-30T13:47:30.517Z,2.07
2018-09-30T13:49:59.596Z,22.63
2018-09-30T13:52:28.642Z,3.00
2018-09-30T13:54:58.239Z,2.03
2018-09-30T13:57:27.561Z,2.70
2018-09-30T13:59:57.006Z,2.57
2018-09-30T14:02:25.981Z,2.73
2018-09-30T14:04:54.946Z,2.30
2018-09-30T14:07:23.908Z,1.97
2018-09-30T14:09:52.897Z,1.87
2018-09-30T14:12:22.138Z,3.00
2018-09-30T14:14:51.426Z,2.10
2018-09-30T14:17:20.823Z,2.30
2018-09-30T14:19:49.842Z,2.70
2018-09-30T14:22:18.978Z,2.23
2018-09-30T14:24:48.002Z,2.03
2018-09-30T14:27:17.111Z,2.00
2018-09-30T14:29:46.043Z,1.90
2018-09-30T14:32:15.323Z,1.90
2018-09-30T14:34:44.555Z,2.00
2018-09-30T14:37:13.546Z,2.03
2018-09-30T14:39:44.282Z,1.97
2018-09-30T14:42:14.613Z,1.97
2018-09-30T14:44:44.077Z,2.43
2018-09-30T14:47:13.788Z,2.20
2018-09-30T14:49:43.252Z,2.20
2018-09-30T14:52:12.993Z,2.50
2018-09-30T14:54:43.657Z,2.00
2018-09-30T14:57:13.885Z,1.60
2018-09-30T14:59:44.171Z,2.27
2018-09-30T15:02:13.588Z,2.17
2018-09-30T15:04:43.499Z,2.30
2018-09-30T15:07:13.151Z,2.00
2018-09-30T15:09:43.886Z,1.57
2018-09-30T15:12:14.317Z,1.53
2018-09-30T15:14:44.386Z,2.20
2018-09-30T15:17:14.330Z,1.80
2018-09-30T15:19:44.886Z,1.90
2018-09-30T15:22:14.046Z,2.07
2018-09-30T15:24:43.278Z,1.83
2018-09-30T15:27:12.355Z,1.73
2018-09-30T15:29:41.577Z,2.00
2018-09-30T15:32:10.576Z,2.23
2018-09-30T15:34:39.589Z,2.10
2018-09-30T15:37:08.855Z,2.60
2018-09-30T15:39:37.846Z,2.57
2018-09-30T15:42:06.826Z,2.07
2018-09-30T15:44:35.876Z,1.80
2018-09-30T15:47:04.876Z,1.47
2018-09-30T15:49:33.883Z,2.10
2018-09-30T15:52:02.882Z,2.43
2018-09-30T15:54:31.972Z,1.57
2018-09-30T15:57:00.963Z,1.90
2018-09-30T15:59:29.978Z,2.10
2018-09-30T16:01:59.027Z,1.73
2018-09-30T16:04:28.051Z,2.40
2018-09-30T16:06:57.442Z,2.23
2018-09-30T16:09:26.882Z,1.97
2018-09-30T16:11:56.281Z,1.63
2018-09-30T16:17:04.553Z,2.10
2018-09-30T16:19:33.725Z,2.77
2018-09-30T16:22:02.728Z,2.60
2018-09-30T16:24:32.866Z,2.53
2018-09-30T16:27:02.767Z,2.77
2018-09-30T16:29:32.192Z,2.60
2018-09-30T16:32:01.551Z,2.63
2018-09-30T16:34:30.830Z,3.10
2018-09-30T16:37:00.235Z,3.00
2018-09-30T16:39:30.179Z,2.47
2018-09-30T16:42:01.859Z,2.60
2018-09-30T16:44:31.245Z,2.30
2018-09-30T16:47:00.473Z,2.83
2018-09-30T16:49:29.833Z,3.40
2018-09-30T16:51:58.962Z,17.80
2018-09-30T16:54:28.351Z,6.40
2018-09-30T16:56:57.474Z,3.60
2018-09-30T16:59:26.877Z,3.00
2018-09-30T17:01:56.033Z,4.53
2018-09-30T17:04:25.080Z,5.00
2018-09-30T17:06:54.265Z,4.50
2018-09-30T17:09:23.789Z,5.10
2018-09-30T17:11:52.855Z,4.07
2018-09-30T17:14:22.274Z,4.03
2018-09-30T17:16:51.485Z,6.03
2018-09-30T17:19:20.473Z,4.93
2018-09-30T17:21:49.846Z,7.47
2018-09-30T17:24:18.827Z,7.87
2018-09-30T17:26:47.857Z,13.50
2018-09-30T17:29:17.007Z,11.37
2018-09-30T17:31:46.228Z,8.20
2018-09-30T17:34:15.238Z,8.43
2018-09-30T17:36:44.269Z,8.00
2018-09-30T17:39:13.285Z,6.63
2018-09-30T17:41:42.359Z,6.03
2018-09-30T17:44:11.404Z,6.40
2018-09-30T17:46:40.391Z,5.60
2018-09-30T17:49:09.637Z,5.47
2018-09-30T17:51:38.757Z,18.60
2018-09-30T17:54:08.841Z,8.90
2018-09-30T17:56:38.742Z,10.37
2018-09-30T17:59:08.393Z,11.20
2018-09-30T18:01:37.662Z,7.70
2018-09-30T18:04:08.493Z,8.53
2018-09-30T18:06:37.667Z,11.10
2018-09-30T18:09:10.159Z,11.63
2018-09-30T18:11:39.353Z,17.67
2018-09-30T18:14:08.356Z,11.07
2018-09-30T18:16:37.493Z,7.03
2018-09-30T18:19:06.517Z,6.17
2018-09-30T18:21:35.669Z,5.97
2018-09-30T18:24:05.168Z,7.20
2018-09-30T18:26:34.221Z,6.27
2018-09-30T18:29:03.445Z,6.50
2018-09-30T18:31:32.500Z,6.50
2018-09-30T18:34:02.345Z,7.67
2018-09-30T18:36:31.552Z,7.47
2018-09-30T18:39:00.797Z,8.20
2018-09-30T18:41:30.260Z,7.80
2018-09-30T18:43:59.573Z,8.57
2018-09-30T18:46:29.039Z,7.17
2018-09-30T18:48:58.337Z,7.20
2018-09-30T18:51:28.062Z,9.77
2018-09-30T18:53:57.429Z,11.13
2018-09-30T18:56:26.831Z,14.50
2018-09-30T18:58:56.012Z,11.20
2018-09-30T19:01:25.335Z,10.90
2018-09-30T19:03:54.498Z,10.67
2018-09-30T19:06:23.612Z,9.73
2018-09-30T19:08:52.695Z,8.90
2018-09-30T19:11:21.872Z,8.10
2018-09-30T19:13:51.080Z,11.70
2018-09-30T19:16:20.306Z,11.43
2018-09-30T19:18:49.414Z,36.50
2018-09-30T19:21:18.786Z,13.57
2018-09-30T19:23:47.803Z,14.60
2018-09-30T19:26:16.811Z,11.80
2018-09-30T19:28:45.895Z,15.00
2018-09-30T19:31:15.308Z,15.50
2018-09-30T19:33:44.640Z,11.30
2018-09-30T19:36:13.689Z,11.53
2018-09-30T19:38:43.009Z,16.40
2018-09-30T19:41:12.033Z,17.37
2018-09-30T19:43:41.025Z,23.03
2018-09-30T19:46:10.235Z,47.37
2018-09-30T19:48:39.336Z,66.77
2018-09-30T19:51:08.266Z,58.10
2018-09-30T19:53:37.485Z,26.70
2018-09-30T19:56:06.482Z,21.57
2018-09-30T19:58:35.526Z,20.53
2018-09-30T20:01:04.604Z,10.17
2018-09-30T20:03:33.578Z,12.70
2018-09-30T20:06:02.912Z,14.27
2018-09-30T20:08:32.695Z,10.47
2018-09-30T20:11:02.077Z,11.10
2018-09-30T20:13:31.339Z,11.57
2018-09-30T20:16:00.748Z,11.03
2018-09-30T20:18:29.896Z,10.60
2018-09-30T20:20:59.204Z,11.07
2018-09-30T20:23:28.124Z,10.60
2018-09-30T20:25:57.146Z,9.17
2018-09-30T20:28:26.294Z,9.97
2018-09-30T20:30:56.260Z,10.17
2018-09-30T20:33:25.308Z,9.50
2018-09-30T20:35:54.358Z,9.07
2018-09-30T20:38:25.454Z,10.70
2018-09-30T20:40:55.301Z,11.87
2018-09-30T20:43:24.637Z,10.10
2018-09-30T20:45:53.673Z,9.97
2018-09-30T20:48:23.043Z,10.93
2018-09-30T20:50:52.850Z,9.90
2018-09-30T20:53:22.459Z,9.57
2018-09-30T20:55:51.581Z,9.83
2018-09-30T20:58:21.610Z,9.67
2018-09-30T21:00:51.807Z,9.23
2018-09-30T21:03:22.410Z,9.73
2018-09-30T21:06:57.060Z,10.60
2018-09-30T21:09:26.588Z,9.60
2018-09-30T21:11:56.132Z,10.23
2018-09-30T21:14:25.180Z,10.43
2018-09-30T21:16:55.132Z,10.60
2018-09-30T21:19:25.626Z,10.73
2018-09-30T21:21:54.712Z,11.27
2018-09-30T21:24:24.592Z,10.93
2018-09-30T21:26:53.740Z,11.70
2018-09-30T21:29:22.831Z,11.83
2018-09-30T21:31:51.930Z,11.43
2018-09-30T21:34:21.765Z,10.87
2018-09-30T21:36:51.790Z,11.43
2018-09-30T21:39:21.516Z,26.77
2018-09-30T21:41:50.594Z,9.77
2018-09-30T21:44:20.187Z,10.63
2018-09-30T21:46:50.414Z,10.33
2018-09-30T21:49:19.483Z,10.53
2018-09-30T21:51:49.011Z,9.60
2018-09-30T21:54:19.960Z,9.37
2018-09-30T21:56:50.110Z,9.17
2018-09-30T21:59:20.035Z,9.20
2018-09-30T22:01:49.657Z,9.47
2018-09-30T22:04:18.576Z,9.80
2018-09-30T22:06:49.534Z,8.13
2018-09-30T22:09:18.814Z,8.83
2018-09-30T22:11:48.587Z,9.00
2018-09-30T22:14:24.459Z,8.73
2018-09-30T22:16:54.334Z,8.83
2018-09-30T22:19:24.356Z,9.37
2018-09-30T22:21:54.392Z,8.80
2018-09-30T22:24:24.407Z,9.03
2018-09-30T22:26:53.553Z,9.50
2018-09-30T22:29:22.565Z,9.47
2018-09-30T22:31:52.617Z,9.10
2018-09-30T22:34:22.816Z,9.03
2018-09-30T22:36:51.809Z,9.00
2018-09-30T22:39:22.327Z,9.07
2018-09-30T22:41:53.932Z,9.10
2018-09-30T22:44:24.380Z,8.63
2018-09-30T22:46:53.411Z,11.03
2018-09-30T22:49:23.112Z,8.80
2018-09-30T22:51:52.079Z,8.60
2018-09-30T22:54:21.982Z,8.73
2018-09-30T22:56:51.923Z,9.40
2018-09-30T22:59:21.223Z,9.23
2018-09-30T23:01:50.483Z,9.60
2018-09-30T23:04:19.491Z,9.50
2018-09-30T23:06:48.580Z,9.43
2018-09-30T23:09:17.924Z,9.27
2018-09-30T23:11:47.443Z,9.67
2018-09-30T23:14:16.427Z,9.57
2018-09-30T23:16:46.072Z,8.90
2018-09-30T23:19:15.485Z,8.50
2018-09-30T23:21:44.543Z,10.73
2018-09-30T23:24:13.507Z,11.17
2018-09-30T23:26:43.065Z,10.60
2018-09-30T23:29:12.345Z,11.53
2018-09-30T23:31:41.717Z,11.67
2018-09-30T23:34:10.697Z,11.77
2018-09-30T23:36:39.696Z,11.80
2018-09-30T23:39:11.025Z,11.00
2018-09-30T23:41:40.275Z,11.43
2018-09-30T23:44:09.882Z,11.00
2018-09-30T23:46:38.859Z,10.60
2018-09-30T23:49:07.874Z,10.93
2018-09-30T23:51:36.883Z,11.33
2018-09-30T23:54:05.923Z,11.03
2018-09-30T23:56:34.991Z,10.47
2018-09-30T23:59:03.995Z,9.37
